DTTX/SFA METAR and TAF weather

Enter ICAO airport designator
Station Type Date Time Source
DTTX METAR 2021/07/30 07:00 UTC NOAA

DTTX 300700Z 19007KT 150V220 CAVOK 31/20 Q1014 NOSIG


Station Type Date Time Source
DTTX Decoded METAR 2021/07/30 07:00 UTC NOAA

Sfax El-Maou, Tunisia (DTTX) 34-43N 010-41E 23M
Jul 30, 2021 - 03:00 AM EDT / 2021.07.30 0700 UTC
Wind: from the S (190 degrees) at 8 MPH (7 KT) (direction variable):0
Visibility: greater than 7 mile(s):0
Temperature: 87 F (31 C)
Dew Point: 68 F (20 C)
Relative Humidity: 52%
Pressure (altimeter): 29.94 in. Hg (1014 hPa)
ob: DTTX 300700Z 19007KT 150V220 CAVOK 31/20 Q1014 NOSIG
cycle: 7

Station Type Date Time Source
DTTX TAF 2021/07/30 06:06 UTC NOAA

TAF DTTX 300500Z 3006/3106 VRB03KT CAVOK
BECMG 3007/3009 19012KT
BECMG 3011/3013 17015KT
BECMG 3019/3021 20005KT

Example: see airport list